Time;durP1;ratioP1;P1;durP2;ratioP2;P2;SDS_P1;SDS_P2;PMS_P1;PMS_P2;Temp;Humidity;BMP_temperature;BMP_pressure;BME280_temperature;BME280_humidity;BME280_pressure;Samples;Min_cycle;Max_cycle;Signal;HPM_P1;HPM_P2
2024/01/18 00:00:44;;;;;;;22.98;16.92;;;;;;;;;;5074717;28;20619;-60
2024/01/18 00:03:10;;;;;;;20.35;15.98;;;;;;;;;;5074937;28;20185;-60
2024/01/18 00:05:37;;;;;;;22.20;16.05;;;;;;;;;;5074937;28;20232;-60
2024/01/18 00:08:05;;;;;;;19.30;14.63;;;;;;;;;;5074822;28;20284;-60
2024/01/18 00:10:33;;;;;;;23.20;16.08;;;;;;;;;;5074612;28;20221;-60
2024/01/18 00:13:00;;;;;;;22.20;16.05;;;;;;;;;;5074575;28;20276;-60
2024/01/18 00:15:27;;;;;;;23.27;16.67;;;;;;;;;;5074416;28;20228;-60
2024/01/18 00:17:54;;;;;;;23.85;15.63;;;;;;;;;;5074671;28;20193;-60
2024/01/18 00:20:22;;;;;;;20.27;16.33;;;;;;;;;;5074443;28;20217;-60
2024/01/18 00:22:49;;;;;;;20.35;15.63;;;;;;;;;;5074494;28;20189;-60
2024/01/18 00:25:16;;;;;;;19.48;15.15;;;;;;;;;;5074472;28;20276;-60
2024/01/18 00:27:44;;;;;;;20.50;14.60;;;;;;;;;;5074250;28;20215;-60
2024/01/18 00:30:12;;;;;;;23.70;16.15;;;;;;;;;;5074085;28;20220;-60
2024/01/18 00:32:39;;;;;;;24.80;16.20;;;;;;;;;;5074433;28;20310;-60
2024/01/18 00:35:06;;;;;;;20.20;15.45;;;;;;;;;;5074260;28;20276;-60
2024/01/18 00:37:33;;;;;;;20.25;14.85;;;;;;;;;;5073592;28;20203;-60
2024/01/18 00:40:00;;;;;;;19.45;14.10;;;;;;;;;;5074027;28;20193;-60
2024/01/18 00:42:27;;;;;;;17.83;13.18;;;;;;;;;;5073907;28;20675;-60
2024/01/18 00:44:55;;;;;;;20.33;12.90;;;;;;;;;;5074013;28;20276;-60
2024/01/18 00:47:22;;;;;;;18.52;12.70;;;;;;;;;;5074069;28;20227;-60
2024/01/18 00:49:49;;;;;;;21.45;13.55;;;;;;;;;;5073860;28;20213;-60
2024/01/18 00:52:16;;;;;;;15.65;12.63;;;;;;;;;;5073749;28;20683;-60
2024/01/18 00:54:43;;;;;;;18.80;13.90;;;;;;;;;;5073739;28;20284;-60
2024/01/18 00:57:10;;;;;;;19.02;12.95;;;;;;;;;;5073608;28;20193;-60
2024/01/18 00:59:37;;;;;;;20.65;14.10;;;;;;;;;;5073866;28;20197;-60
2024/01/18 01:02:05;;;;;;;17.20;12.57;;;;;;;;;;5073781;28;20718;-61
2024/01/18 01:04:32;;;;;;;17.45;12.57;;;;;;;;;;5073703;28;20189;-61
2024/01/18 01:06:59;;;;;;;19.80;13.23;;;;;;;;;;5073609;28;20615;-61
2024/01/18 01:09:26;;;;;;;16.33;11.85;;;;;;;;;;5073377;28;20193;-61
2024/01/18 01:11:53;;;;;;;22.73;12.93;;;;;;;;;;5073380;28;20548;-61
2024/01/18 01:14:20;;;;;;;18.92;12.07;;;;;;;;;;5073568;28;20186;-61
2024/01/18 01:16:47;;;;;;;19.40;11.60;;;;;;;;;;5073540;28;20760;-61
2024/01/18 01:19:14;;;;;;;18.00;12.05;;;;;;;;;;5073282;28;20724;-60
2024/01/18 01:21:41;;;;;;;21.13;12.95;;;;;;;;;;5073162;28;20264;-61
2024/01/18 01:24:08;;;;;;;18.67;12.52;;;;;;;;;;5073226;28;20185;-61
2024/01/18 01:26:35;;;;;;;17.27;12.35;;;;;;;;;;5073456;28;20596;-61
2024/01/18 01:29:03;;;;;;;19.48;13.27;;;;;;;;;;5073500;28;20199;-61
2024/01/18 01:31:30;;;;;;;20.20;12.50;;;;;;;;;;5073241;28;20307;-60
2024/01/18 01:33:57;;;;;;;15.75;12.15;;;;;;;;;;5073225;28;20225;-60
2024/01/18 01:36:25;;;;;;;20.70;12.05;;;;;;;;;;5073002;28;20196;-61
2024/01/18 01:38:52;;;;;;;18.45;12.82;;;;;;;;;;5072995;28;20819;-61
2024/01/18 01:41:19;;;;;;;20.17;12.48;;;;;;;;;;5073231;28;20275;-61
2024/01/18 01:43:59;;;;;;;19.92;14.20;;;;;;;;;;5073130;28;20279;-61
2024/01/18 01:46:26;;;;;;;20.05;12.07;;;;;;;;;;5072957;28;20679;-61
2024/01/18 01:48:53;;;;;;;18.48;13.88;;;;;;;;;;5072031;28;20659;-61
2024/01/18 01:51:20;;;;;;;17.52;12.60;;;;;;;;;;5072836;28;20308;-61
2024/01/18 01:53:49;;;;;;;17.05;12.07;;;;;;;;;;5073115;28;20191;-60
2024/01/18 01:56:15;;;;;;;17.90;12.68;;;;;;;;;;5072860;28;20289;-61
2024/01/18 01:58:43;;;;;;;17.67;13.25;;;;;;;;;;5072938;28;20197;-61
2024/01/18 02:01:10;;;;;;;20.17;12.55;;;;;;;;;;5072973;28;20189;-61
2024/01/18 02:03:37;;;;;;;16.75;12.63;;;;;;;;;;5072832;28;20613;-61
2024/01/18 02:06:04;;;;;;;21.35;12.60;;;;;;;;;;5072745;28;20541;-61
2024/01/18 02:08:31;;;;;;;19.88;12.60;;;;;;;;;;5072959;28;20216;-61
2024/01/18 02:11:00;;;;;;;22.98;14.60;;;;;;;;;;5072803;28;20255;-61
2024/01/18 02:13:27;;;;;;;20.92;13.25;;;;;;;;;;5072819;28;20625;-61
2024/01/18 02:15:53;;;;;;;18.05;14.00;;;;;;;;;;5072731;28;20196;-60
2024/01/18 02:18:20;;;;;;;24.17;13.13;;;;;;;;;;5072589;28;20280;-60
2024/01/18 02:20:47;;;;;;;20.85;13.60;;;;;;;;;;5072603;28;20225;-61
2024/01/18 02:23:15;;;;;;;20.15;12.65;;;;;;;;;;5072733;28;20201;-61
2024/01/18 02:25:44;;;;;;;19.00;12.93;;;;;;;;;;5072725;28;20295;-60
2024/01/18 02:28:11;;;;;;;19.20;14.48;;;;;;;;;;5072542;28;20743;-61
2024/01/18 02:30:38;;;;;;;19.67;13.35;;;;;;;;;;5072442;28;20235;-61
2024/01/18 02:33:05;;;;;;;19.73;12.95;;;;;;;;;;5072790;28;20194;-61
2024/01/18 02:35:32;;;;;;;18.73;12.80;;;;;;;;;;5072660;28;20315;-61
2024/01/18 02:37:58;;;;;;;20.55;14.45;;;;;;;;;;5072673;28;20544;-61
2024/01/18 02:40:25;;;;;;;17.55;12.77;;;;;;;;;;5072554;28;20620;-61
2024/01/18 02:42:54;;;;;;;18.80;13.30;;;;;;;;;;5072472;28;20383;-61
2024/01/18 02:45:21;;;;;;;19.52;13.07;;;;;;;;;;5072311;28;20285;-61
2024/01/18 02:47:47;;;;;;;18.02;12.80;;;;;;;;;;5072605;28;20189;-61
2024/01/18 02:50:14;;;;;;;17.80;11.57;;;;;;;;;;5072473;28;20296;-61
2024/01/18 02:52:41;;;;;;;17.40;12.32;;;;;;;;;;5072504;28;20439;-60
2024/01/18 02:55:09;;;;;;;16.60;13.10;;;;;;;;;;5072471;28;20272;-61
2024/01/18 02:57:36;;;;;;;19.60;13.63;;;;;;;;;;5072362;28;20189;-61
2024/01/18 03:00:04;;;;;;;19.70;12.45;;;;;;;;;;5072596;28;20617;-61
2024/01/18 03:02:31;;;;;;;14.30;11.77;;;;;;;;;;5076102;28;20204;-61
2024/01/18 03:04:58;;;;;;;15.60;11.63;;;;;;;;;;5075990;28;20204;-61
2024/01/18 03:07:25;;;;;;;17.15;11.27;;;;;;;;;;5075899;28;20272;-61
2024/01/18 03:09:52;;;;;;;15.82;11.65;;;;;;;;;;5075931;28;20243;-60
2024/01/18 03:12:19;;;;;;;14.43;11.98;;;;;;;;;;5075664;28;20190;-61
2024/01/18 03:14:46;;;;;;;14.80;10.48;;;;;;;;;;5075659;28;20296;-61
2024/01/18 03:17:14;;;;;;;19.05;11.90;;;;;;;;;;5075810;28;20189;-60
2024/01/18 03:19:41;;;;;;;16.00;11.55;;;;;;;;;;5075549;28;20284;-60
2024/01/18 03:22:08;;;;;;;14.70;11.40;;;;;;;;;;5075694;28;20193;-60
2024/01/18 03:24:35;;;;;;;14.65;10.20;;;;;;;;;;5075626;28;20291;-60
2024/01/18 03:27:02;;;;;;;15.75;11.77;;;;;;;;;;5075457;28;20272;-60
2024/01/18 03:29:29;;;;;;;12.68;10.18;;;;;;;;;;5075645;28;20718;-61
2024/01/18 03:31:56;;;;;;;16.70;11.55;;;;;;;;;;5075423;28;20217;-60
2024/01/18 03:34:24;;;;;;;12.65;9.98;;;;;;;;;;5075422;28;20217;-60
2024/01/18 03:36:51;;;;;;;14.30;11.07;;;;;;;;;;5075434;28;20637;-60
2024/01/18 03:39:18;;;;;;;16.23;11.00;;;;;;;;;;5075325;28;20192;-60
2024/01/18 03:41:45;;;;;;;16.90;10.55;;;;;;;;;;5075158;28;20200;-60
2024/01/18 03:44:12;;;;;;;15.60;11.02;;;;;;;;;;5075323;28;20196;-60
2024/01/18 03:46:39;;;;;;;13.73;11.68;;;;;;;;;;5075270;28;20625;-60
2024/01/18 03:49:06;;;;;;;14.57;10.60;;;;;;;;;;5075153;28;20199;-60
2024/01/18 03:51:34;;;;;;;13.82;10.85;;;;;;;;;;5075000;28;20256;-60
2024/01/18 03:54:01;;;;;;;16.33;10.75;;;;;;;;;;5074891;28;20280;-60
2024/01/18 03:56:28;;;;;;;18.92;12.23;;;;;;;;;;5075161;28;20189;-61
2024/01/18 03:58:56;;;;;;;19.88;10.88;;;;;;;;;;5075007;28;20189;-61
2024/01/18 04:01:23;;;;;;;15.13;10.90;;;;;;;;;;5074957;28;20227;-61
2024/01/18 04:03:50;;;;;;;16.13;11.30;;;;;;;;;;5074853;28;20189;-60
2024/01/18 04:06:17;;;;;;;14.40;10.70;;;;;;;;;;5074740;28;20193;-61
2024/01/18 04:08:45;;;;;;;16.30;11.45;;;;;;;;;;5074528;28;20276;-61
2024/01/18 04:11:12;;;;;;;17.92;11.57;;;;;;;;;;5074538;28;20219;-61
2024/01/18 04:13:39;;;;;;;15.02;10.88;;;;;;;;;;5074026;28;20189;-61
2024/01/18 04:16:06;;;;;;;15.05;11.30;;;;;;;;;;5074557;28;20277;-61
2024/01/18 04:18:33;;;;;;;17.02;11.32;;;;;;;;;;5074591;28;20701;-61
2024/01/18 04:21:00;;;;;;;15.05;11.48;;;;;;;;;;5074289;28;20225;-61
2024/01/18 04:23:27;;;;;;;16.77;11.30;;;;;;;;;;5074303;28;20197;-61
2024/01/18 04:25:56;;;;;;;17.48;12.32;;;;;;;;;;5074493;28;20609;-61
2024/01/18 04:28:23;;;;;;;15.25;11.90;;;;;;;;;;5074455;28;20196;-60
2024/01/18 04:30:50;;;;;;;14.60;12.35;;;;;;;;;;5074332;28;20568;-61
2024/01/18 04:33:18;;;;;;;15.50;12.35;;;;;;;;;;5074152;28;20599;-60
2024/01/18 04:35:45;;;;;;;16.23;11.52;;;;;;;;;;5074032;28;20605;-61
2024/01/18 04:38:12;;;;;;;15.90;12.30;;;;;;;;;;5074240;28;20197;-61
2024/01/18 04:40:39;;;;;;;15.85;11.85;;;;;;;;;;5073987;28;20221;-60
2024/01/18 04:43:07;;;;;;;15.70;12.20;;;;;;;;;;5074059;28;20621;-60
2024/01/18 04:45:34;;;;;;;18.38;12.38;;;;;;;;;;5074019;28;20191;-60
2024/01/18 04:48:03;;;;;;;17.15;12.75;;;;;;;;;;5073883;28;20653;-60
2024/01/18 04:50:30;;;;;;;16.67;11.52;;;;;;;;;;5073713;28;20280;-61
2024/01/18 04:52:57;;;;;;;17.30;11.75;;;;;;;;;;5073954;28;20215;-61
2024/01/18 04:55:24;;;;;;;17.95;11.55;;;;;;;;;;5073883;28;20280;-60
2024/01/18 04:57:51;;;;;;;16.88;12.13;;;;;;;;;;5073791;28;20185;-60
2024/01/18 05:00:20;;;;;;;12.23;9.93;;;;;;;;;;5073690;28;20621;-60
2024/01/18 05:02:47;;;;;;;15.80;10.20;;;;;;;;;;5073505;28;20284;-61
2024/01/18 05:05:14;;;;;;;17.40;11.40;;;;;;;;;;5073776;28;20219;-60
2024/01/18 05:07:41;;;;;;;18.10;11.40;;;;;;;;;;5073717;28;20185;-60
2024/01/18 05:10:10;;;;;;;16.23;12.80;;;;;;;;;;5073604;28;20550;-60
2024/01/18 05:12:37;;;;;;;17.45;12.00;;;;;;;;;;5073423;28;20217;-60
2024/01/18 05:15:04;;;;;;;17.48;11.77;;;;;;;;;;5073500;28;20243;-60
2024/01/18 05:17:35;;;;;;;15.40;10.98;;;;;;;;;;5073385;28;20277;-60
2024/01/18 05:20:03;;;;;;;14.38;10.90;;;;;;;;;;5073173;28;20722;-60
2024/01/18 05:22:30;;;;;;;17.70;11.65;;;;;;;;;;5073467;28;20193;-61
2024/01/18 05:24:58;;;;;;;16.08;11.13;;;;;;;;;;5073227;28;20192;-61
2024/01/18 05:27:27;;;;;;;13.05;10.93;;;;;;;;;;5073207;28;20219;-60
2024/01/18 05:29:54;;;;;;;14.90;11.77;;;;;;;;;;5073086;28;20280;-60
2024/01/18 05:32:21;;;;;;;17.60;12.02;;;;;;;;;;5073258;28;20248;-61
2024/01/18 05:34:50;;;;;;;29.60;16.30;;;;;;;;;;5073260;28;20560;-61
2024/01/18 05:37:17;;;;;;;24.25;14.68;;;;;;;;;;5073170;28;20189;-61
2024/01/18 05:39:44;;;;;;;17.30;13.23;;;;;;;;;;5073117;28;20224;-60
2024/01/18 05:42:11;;;;;;;20.73;13.20;;;;;;;;;;5073090;28;20220;-61
2024/01/18 05:44:38;;;;;;;16.00;13.65;;;;;;;;;;5072911;28;20630;-60
2024/01/18 05:47:05;;;;;;;19.70;13.25;;;;;;;;;;5072875;28;20687;-61
2024/01/18 05:49:32;;;;;;;15.63;12.80;;;;;;;;;;5073026;28;20275;-60
2024/01/18 05:52:00;;;;;;;18.13;13.13;;;;;;;;;;5072959;28;20216;-61
2024/01/18 05:54:27;;;;;;;16.67;13.05;;;;;;;;;;5072928;28;20601;-60
2024/01/18 05:56:54;;;;;;;19.77;14.48;;;;;;;;;;5072841;28;20280;-61
2024/01/18 05:59:21;;;;;;;19.48;13.50;;;;;;;;;;5072669;28;20300;-61
2024/01/18 06:01:48;;;;;;;18.67;14.00;;;;;;;;;;5072888;28;20604;-61
2024/01/18 06:04:15;;;;;;;15.43;13.13;;;;;;;;;;5072857;28;20192;-61
2024/01/18 06:06:42;;;;;;;17.30;12.10;;;;;;;;;;5072956;28;20232;-60
2024/01/18 06:09:13;;;;;;;18.80;14.00;;;;;;;;;;5072781;28;20193;-61
2024/01/18 06:11:40;;;;;;;22.15;14.23;;;;;;;;;;5072509;28;20209;-60
2024/01/18 06:14:07;;;;;;;17.80;12.75;;;;;;;;;;5072725;28;20238;-61
2024/01/18 06:16:34;;;;;;;20.48;13.63;;;;;;;;;;5072622;28;20189;-61
2024/01/18 06:19:01;;;;;;;21.35;13.82;;;;;;;;;;5072748;28;20254;-61
2024/01/18 06:21:28;;;;;;;20.48;14.25;;;;;;;;;;5072461;28;20585;-61
2024/01/18 06:23:55;;;;;;;18.75;14.57;;;;;;;;;;5072486;28;20697;-61
2024/01/18 06:26:23;;;;;;;19.00;13.82;;;;;;;;;;5072334;28;20189;-60
2024/01/18 06:28:50;;;;;;;19.40;15.23;;;;;;;;;;5072595;28;20276;-61
2024/01/18 06:31:19;;;;;;;21.17;15.60;;;;;;;;;;5072232;28;20779;-61
2024/01/18 06:33:46;;;;;;;23.88;17.20;;;;;;;;;;5072441;28;20200;-61
2024/01/18 06:36:14;;;;;;;21.30;15.32;;;;;;;;;;5074602;28;20191;-61
2024/01/18 06:38:41;;;;;;;19.52;15.15;;;;;;;;;;5076268;28;20213;-61
2024/01/18 06:41:11;;;;;;;18.80;14.27;;;;;;;;;;5076496;28;20220;-61
2024/01/18 06:43:39;;;;;;;19.75;14.85;;;;;;;;;;5076283;28;20193;-61
2024/01/18 06:46:15;;;;;;;24.55;15.43;;;;;;;;;;5076196;28;20280;-60
2024/01/18 06:48:42;;;;;;;21.38;15.13;;;;;;;;;;5076127;28;20667;-61
2024/01/18 06:51:09;;;;;;;21.17;13.95;;;;;;;;;;5075794;28;20189;-61
2024/01/18 06:53:36;;;;;;;26.08;15.63;;;;;;;;;;5076054;28;20704;-61
2024/01/18 06:56:04;;;;;;;23.33;14.50;;;;;;;;;;5076202;28;20668;-61
2024/01/18 06:58:30;;;;;;;23.02;16.00;;;;;;;;;;5075887;28;20201;-61
2024/01/18 07:00:59;;;;;;;22.60;14.15;;;;;;;;;;5075892;28;20228;-61
2024/01/18 07:03:30;;;;;;;19.27;13.68;;;;;;;;;;5075808;28;20644;-61
2024/01/18 07:05:57;;;;;;;17.00;12.65;;;;;;;;;;5075717;28;20220;-61
2024/01/18 07:08:25;;;;;;;21.13;13.55;;;;;;;;;;5075817;28;20189;-61
2024/01/18 07:10:52;;;;;;;23.10;14.18;;;;;;;;;;5075862;28;20194;-61
2024/01/18 07:13:18;;;;;;;15.93;12.65;;;;;;;;;;5075687;28;20781;-60
2024/01/18 07:15:45;;;;;;;18.15;12.60;;;;;;;;;;5075519;28;20200;-61
2024/01/18 07:18:14;;;;;;;18.30;12.90;;;;;;;;;;5075420;28;20272;-61
2024/01/18 07:20:41;;;;;;;20.63;12.30;;;;;;;;;;5075499;28;20217;-61
2024/01/18 07:23:08;;;;;;;20.83;14.63;;;;;;;;;;5075557;28;20193;-61
2024/01/18 07:25:35;;;;;;;22.98;14.82;;;;;;;;;;5075544;28;20189;-60
2024/01/18 07:28:02;;;;;;;19.90;15.20;;;;;;;;;;5075422;28;20279;-60
2024/01/18 07:30:28;;;;;;;36.28;21.63;;;;;;;;;;5075332;28;20193;-61
2024/01/18 07:32:55;;;;;;;27.20;16.52;;;;;;;;;;5075261;28;20583;-61
2024/01/18 07:35:24;;;;;;;22.23;16.30;;;;;;;;;;5075410;28;20292;-61
2024/01/18 07:37:50;;;;;;;24.52;13.88;;;;;;;;;;5075355;28;20223;-60
2024/01/18 07:40:17;;;;;;;21.27;15.90;;;;;;;;;;5075249;28;20638;-60
2024/01/18 07:42:44;;;;;;;22.20;17.23;;;;;;;;;;5075242;28;20189;-60
2024/01/18 07:45:14;;;;;;;24.58;16.73;;;;;;;;;;5075095;28;20205;-61
2024/01/18 07:47:41;;;;;;;22.42;14.93;;;;;;;;;;5073925;28;20185;-61
2024/01/18 07:50:09;;;;;;;21.27;14.90;;;;;;;;;;5074936;28;20196;-61
2024/01/18 07:52:38;;;;;;;21.13;14.30;;;;;;;;;;5074959;28;20217;-61
2024/01/18 07:55:07;;;;;;;22.10;15.15;;;;;;;;;;5074969;28;20250;-61
2024/01/18 07:57:34;;;;;;;23.55;16.67;;;;;;;;;;5074753;28;20193;-61
2024/01/18 08:00:01;;;;;;;21.10;16.92;;;;;;;;;;5074556;28;20186;-61
2024/01/18 08:02:27;;;;;;;22.02;16.50;;;;;;;;;;5074845;28;20276;-60
2024/01/18 08:04:54;;;;;;;18.65;14.77;;;;;;;;;;5074890;28;20240;-61
2024/01/18 08:07:20;;;;;;;26.30;15.80;;;;;;;;;;5074828;28;20189;-61
2024/01/18 08:09:48;;;;;;;19.63;15.10;;;;;;;;;;5074448;28;20205;-61
2024/01/18 08:12:15;;;;;;;26.13;16.38;;;;;;;;;;5074166;28;20477;-61
2024/01/18 08:14:42;;;;;;;18.88;16.20;;;;;;;;;;5074227;28;20200;-61
2024/01/18 08:17:09;;;;;;;24.33;18.20;;;;;;;;;;5074561;28;20244;-61
2024/01/18 08:19:36;;;;;;;30.33;19.35;;;;;;;;;;5074417;28;20549;-63
2024/01/18 08:22:03;;;;;;;24.42;17.60;;;;;;;;;;5074346;28;20272;-61
2024/01/18 08:24:30;;;;;;;22.77;17.63;;;;;;;;;;5074327;28;20193;-61
2024/01/18 08:26:58;;;;;;;23.45;17.75;;;;;;;;;;5073904;28;20649;-61
2024/01/18 08:29:26;;;;;;;23.75;14.88;;;;;;;;;;5074291;28;20276;-61
2024/01/18 08:31:54;;;;;;;20.55;15.35;;;;;;;;;;5074212;28;20300;-62
2024/01/18 08:34:21;;;;;;;29.60;17.08;;;;;;;;;;5073802;28;20193;-63
2024/01/18 08:36:48;;;;;;;21.67;16.75;;;;;;;;;;5074158;28;20296;-62
2024/01/18 08:39:15;;;;;;;20.60;16.08;;;;;;;;;;5074037;28;20193;-62
2024/01/18 08:41:42;;;;;;;20.23;15.50;;;;;;;;;;5073742;28;20276;-62
2024/01/18 08:44:10;;;;;;;21.25;15.98;;;;;;;;;;5073967;28;20190;-62
2024/01/18 08:46:39;;;;;;;25.73;18.63;;;;;;;;;;5074014;28;20204;-62
2024/01/18 08:49:07;;;;;;;38.08;24.33;;;;;;;;;;5073807;28;20186;-63
2024/01/18 08:51:34;;;;;;;24.42;19.02;;;;;;;;;;5073889;28;20280;-62
2024/01/18 08:54:01;;;;;;;26.70;17.45;;;;;;;;;;5073558;28;20308;-62
2024/01/18 08:56:28;;;;;;;22.55;17.17;;;;;;;;;;5073524;28;20189;-62
2024/01/18 08:58:55;;;;;;;25.65;17.05;;;;;;;;;;5073054;28;20193;-63
2024/01/18 09:01:23;;;;;;;25.35;17.67;;;;;;;;;;5073686;28;20295;-59
2024/01/18 09:03:51;;;;;;;24.38;17.50;;;;;;;;;;5073702;28;20204;-62
2024/01/18 09:06:18;;;;;;;34.90;21.08;;;;;;;;;;5073453;28;20193;-62
2024/01/18 09:08:45;;;;;;;29.52;18.27;;;;;;;;;;5073399;28;20617;-63
2024/01/18 09:11:13;;;;;;;28.70;17.10;;;;;;;;;;5073540;28;20189;-63
2024/01/18 09:13:40;;;;;;;30.00;18.02;;;;;;;;;;5072857;28;20467;-61
2024/01/18 09:16:07;;;;;;;25.92;17.73;;;;;;;;;;5073143;28;20715;-61
2024/01/18 09:18:36;;;;;;;25.88;17.63;;;;;;;;;;5073312;28;20192;-61
2024/01/18 09:21:03;;;;;;;27.08;19.60;;;;;;;;;;5072769;28;20307;-60
2024/01/18 09:23:30;;;;;;;21.02;15.93;;;;;;;;;;5073353;28;20682;-61
2024/01/18 09:25:57;;;;;;;27.08;17.90;;;;;;;;;;5073103;28;20196;-61
2024/01/18 09:28:24;;;;;;;26.50;17.10;;;;;;;;;;5073247;28;20623;-67
2024/01/18 09:30:50;;;;;;;23.98;17.33;;;;;;;;;;5073069;28;20193;-68
2024/01/18 09:33:17;;;;;;;23.90;18.25;;;;;;;;;;5072916;28;20229;-64
2024/01/18 09:35:46;;;;;;;25.70;19.83;;;;;;;;;;5072942;28;20193;-62
2024/01/18 09:38:13;;;;;;;28.10;19.20;;;;;;;;;;5072857;28;20193;-63
2024/01/18 09:40:40;;;;;;;28.02;17.95;;;;;;;;;;5073129;28;20193;-63
2024/01/18 09:43:09;;;;;;;27.23;18.30;;;;;;;;;;5072795;28;20196;-63
2024/01/18 09:45:39;;;;;;;23.23;17.23;;;;;;;;;;5072917;28;20193;-62
2024/01/18 09:48:07;;;;;;;22.65;17.55;;;;;;;;;;5073135;28;20243;-63
2024/01/18 09:50:34;;;;;;;24.98;17.98;;;;;;;;;;5072644;28;20286;-63
2024/01/18 09:53:02;;;;;;;29.10;19.70;;;;;;;;;;5072447;28;20212;-62
2024/01/18 09:55:30;;;;;;;31.52;20.50;;;;;;;;;;5072930;28;20289;-64
2024/01/18 09:57:59;;;;;;;25.93;18.63;;;;;;;;;;5072467;28;20272;-63
2024/01/18 10:00:28;;;;;;;26.20;18.02;;;;;;;;;;5072758;28;20509;-63
2024/01/18 10:02:55;;;;;;;24.13;20.38;;;;;;;;;;5072640;28;20189;-63
2024/01/18 10:05:23;;;;;;;28.38;19.42;;;;;;;;;;5072814;28;20280;-62
2024/01/18 10:07:50;;;;;;;28.58;18.65;;;;;;;;;;5072664;28;20221;-62
2024/01/18 10:10:18;;;;;;;27.27;18.25;;;;;;;;;;5073597;28;20188;-63
2024/01/18 10:12:47;;;;;;;33.88;23.10;;;;;;;;;;5076793;28;20213;-62
2024/01/18 10:15:31;;;;;;;31.40;20.85;;;;;;;;;;5076819;28;20185;-64
2024/01/18 10:17:58;;;;;;;24.63;17.85;;;;;;;;;;5076937;28;20239;-62
2024/01/18 10:20:26;;;;;;;20.92;17.45;;;;;;;;;;5076445;28;20252;-63
2024/01/18 10:22:53;;;;;;;26.35;18.35;;;;;;;;;;5076750;28;20195;-61
2024/01/18 10:25:23;;;;;;;25.38;20.00;;;;;;;;;;5076668;28;20189;-63
2024/01/18 10:27:52;;;;;;;27.60;18.45;;;;;;;;;;5076353;28;20189;-62
2024/01/18 10:30:19;;;;;;;28.10;19.42;;;;;;;;;;5076627;28;20212;-62
2024/01/18 10:32:46;;;;;;;24.57;18.37;;;;;;;;;;5076185;28;20754;-62
2024/01/18 10:35:19;;;;;;;29.23;20.35;;;;;;;;;;5076379;28;20504;-62
2024/01/18 10:37:46;;;;;;;23.60;18.63;;;;;;;;;;5076360;28;20196;-62
2024/01/18 10:40:18;;;;;;;28.80;20.55;;;;;;;;;;5075920;28;20196;-62
2024/01/18 10:42:47;;;;;;;26.58;18.70;;;;;;;;;;5076557;28;20193;-62
2024/01/18 10:45:15;;;;;;;27.25;19.38;;;;;;;;;;5076374;28;20615;-61
2024/01/18 10:47:42;;;;;;;23.05;18.45;;;;;;;;;;5076292;28;20193;-61
2024/01/18 10:50:10;;;;;;;27.35;19.95;;;;;;;;;;5076079;28;20189;-61
2024/01/18 10:52:38;;;;;;;22.70;18.13;;;;;;;;;;5075901;28;20241;-62
2024/01/18 10:55:08;;;;;;;23.83;19.23;;;;;;;;;;5075894;28;20193;-60
2024/01/18 10:57:35;;;;;;;32.25;20.08;;;;;;;;;;5076076;28;20189;-63
2024/01/18 11:00:06;;;;;;;29.60;19.15;;;;;;;;;;5076122;28;20190;-63
2024/01/18 11:02:34;;;;;;;26.15;19.15;;;;;;;;;;5075901;28;20189;-64
2024/01/18 11:05:03;;;;;;;24.75;19.50;;;;;;;;;;5075770;28;20193;-64
2024/01/18 11:07:30;;;;;;;24.52;19.92;;;;;;;;;;5075473;28;20193;-63
2024/01/18 11:09:57;;;;;;;25.70;18.90;;;;;;;;;;5075758;28;20192;-61
2024/01/18 11:12:26;;;;;;;29.02;19.35;;;;;;;;;;5075652;28;20276;-65
2024/01/18 11:14:53;;;;;;;28.33;19.65;;;;;;;;;;5075744;28;20193;-62
2024/01/18 11:17:21;;;;;;;33.25;20.63;;;;;;;;;;5075646;28;20282;-62
2024/01/18 11:19:49;;;;;;;27.88;19.85;;;;;;;;;;5075290;28;20575;-64
2024/01/18 11:22:24;;;;;;;30.65;18.55;;;;;;;;;;5075464;28;20173;-64
2024/01/18 11:24:51;;;;;;;32.45;19.63;;;;;;;;;;5075508;28;20280;-64
2024/01/18 11:27:19;;;;;;;22.65;18.77;;;;;;;;;;5075383;28;20276;-64
2024/01/18 11:29:46;;;;;;;24.77;18.25;;;;;;;;;;5075329;28;20280;-65
2024/01/18 11:32:14;;;;;;;23.65;18.42;;;;;;;;;;5075297;28;20199;-62
2024/01/18 11:34:43;;;;;;;33.60;22.15;;;;;;;;;;5075063;28;20209;-61
2024/01/18 11:37:11;;;;;;;25.05;17.42;;;;;;;;;;5074998;28;20189;-66
2024/01/18 11:39:56;;;;;;;27.73;19.10;;;;;;;;;;5075310;28;20599;-62
2024/01/18 11:42:24;;;;;;;28.30;19.27;;;;;;;;;;5075230;28;20193;-62
2024/01/18 11:44:55;;;;;;;33.28;20.17;;;;;;;;;;5075001;28;20447;-61
2024/01/18 11:47:22;;;;;;;29.70;20.40;;;;;;;;;;5075132;28;20221;-62
2024/01/18 11:49:51;;;;;;;31.30;20.93;;;;;;;;;;5075019;28;20450;-62
2024/01/18 11:52:18;;;;;;;26.98;19.52;;;;;;;;;;5075019;28;20547;-61
2024/01/18 11:54:46;;;;;;;32.30;20.70;;;;;;;;;;5074835;28;20259;-62
2024/01/18 11:57:13;;;;;;;24.42;19.02;;;;;;;;;;5074683;28;20185;-61
2024/01/18 11:59:45;;;;;;;25.95;19.73;;;;;;;;;;5074468;28;20597;-61
2024/01/18 12:02:12;;;;;;;34.00;20.60;;;;;;;;;;5074787;28;20197;-61
2024/01/18 12:04:39;;;;;;;23.85;18.65;;;;;;;;;;5074834;28;20193;-62
2024/01/18 12:07:07;;;;;;;26.50;19.80;;;;;;;;;;5074688;28;20185;-61
2024/01/18 12:09:35;;;;;;;24.48;19.38;;;;;;;;;;5074594;28;20276;-61
2024/01/18 12:12:02;;;;;;;28.02;21.17;;;;;;;;;;5074583;28;20281;-62
2024/01/18 12:14:29;;;;;;;31.65;20.60;;;;;;;;;;5074569;28;20300;-61
2024/01/18 12:16:57;;;;;;;31.38;20.50;;;;;;;;;;5074503;28;20275;-61
2024/01/18 12:19:31;;;;;;;33.67;21.50;;;;;;;;;;5074547;28;20194;-62
2024/01/18 12:21:58;;;;;;;28.15;21.20;;;;;;;;;;5074067;28;20228;-61
2024/01/18 12:24:27;;;;;;;29.65;20.92;;;;;;;;;;5074312;28;20272;-63
2024/01/18 12:26:54;;;;;;;28.65;21.05;;;;;;;;;;5073889;28;20597;-63
2024/01/18 12:29:22;;;;;;;31.83;21.20;;;;;;;;;;5074328;28;20212;-62
2024/01/18 12:31:49;;;;;;;29.05;21.55;;;;;;;;;;5074250;28;20229;-64
2024/01/18 12:34:17;;;;;;;32.20;22.35;;;;;;;;;;5073451;28;20248;-63
2024/01/18 12:36:44;;;;;;;29.73;21.45;;;;;;;;;;5074052;28;20629;-63
2024/01/18 12:39:12;;;;;;;33.20;23.15;;;;;;;;;;5073902;28;20649;-63
2024/01/18 12:41:40;;;;;;;23.98;20.08;;;;;;;;;;5073967;28;20285;-62
2024/01/18 12:44:07;;;;;;;33.00;23.40;;;;;;;;;;5074023;28;20193;-62
2024/01/18 12:46:34;;;;;;;31.30;22.58;;;;;;;;;;5073950;28;20721;-62
2024/01/18 12:49:01;;;;;;;32.67;22.27;;;;;;;;;;5073758;28;20196;-62
2024/01/18 12:51:28;;;;;;;31.58;21.05;;;;;;;;;;5073620;28;20486;-62
2024/01/18 12:53:55;;;;;;;31.40;23.73;;;;;;;;;;5073363;28;20213;-62
2024/01/18 12:56:22;;;;;;;29.48;21.70;;;;;;;;;;5073500;28;20280;-62
2024/01/18 12:58:51;;;;;;;27.95;20.35;;;;;;;;;;5073638;28;20668;-64
2024/01/18 13:01:28;;;;;;;29.80;20.80;;;;;;;;;;5073509;28;20295;-63
2024/01/18 13:04:09;;;;;;;31.50;20.45;;;;;;;;;;5073434;28;20207;-63
2024/01/18 13:06:36;;;;;;;29.92;21.10;;;;;;;;;;5073497;28;20216;-66
2024/01/18 13:09:04;;;;;;;28.17;20.77;;;;;;;;;;5073624;28;20600;-65
2024/01/18 13:11:32;;;;;;;29.83;21.38;;;;;;;;;;5073389;28;20185;-64
2024/01/18 13:14:01;;;;;;;36.00;23.65;;;;;;;;;;5073290;28;20213;-62
2024/01/18 13:16:28;;;;;;;28.15;21.25;;;;;;;;;;5073140;28;20311;-62
2024/01/18 13:18:59;;;;;;;26.10;20.63;;;;;;;;;;5073270;28;20189;-63
2024/01/18 13:21:26;;;;;;;26.88;20.17;;;;;;;;;;5073120;28;20217;-64
2024/01/18 13:23:53;;;;;;;28.77;20.27;;;;;;;;;;5073267;28;20193;-64
2024/01/18 13:26:20;;;;;;;24.40;18.35;;;;;;;;;;5072999;28;20194;-64
2024/01/18 13:28:47;;;;;;;29.77;19.67;;;;;;;;;;5072972;28;20195;-63
2024/01/18 13:31:16;;;;;;;28.73;20.55;;;;;;;;;;5072824;28;20273;-62
2024/01/18 13:33:43;;;;;;;26.77;19.92;;;;;;;;;;5072926;28;20213;-63
2024/01/18 13:36:10;;;;;;;33.97;19.17;;;;;;;;;;5073087;28;20189;-61
2024/01/18 13:38:37;;;;;;;32.60;19.60;;;;;;;;;;5072845;28;20713;-63
2024/01/18 13:41:05;;;;;;;26.08;19.27;;;;;;;;;;5072926;28;20216;-63
2024/01/18 13:43:32;;;;;;;25.65;18.20;;;;;;;;;;5072580;28;20236;-63
2024/01/18 13:45:59;;;;;;;25.88;19.10;;;;;;;;;;5072724;28;20185;-64
2024/01/18 13:48:29;;;;;;;30.52;20.20;;;;;;;;;;5073025;28;20200;-64
2024/01/18 13:50:57;;;;;;;29.42;19.45;;;;;;;;;;5072913;28;20196;-64
2024/01/18 13:53:24;;;;;;;28.65;19.95;;;;;;;;;;5072779;28;20284;-64
2024/01/18 13:55:51;;;;;;;27.98;20.55;;;;;;;;;;5072687;28;20185;-64
2024/01/18 13:58:18;;;;;;;27.67;19.88;;;;;;;;;;5072666;28;20279;-64
2024/01/18 14:00:45;;;;;;;28.20;20.15;;;;;;;;;;5072790;28;20192;-64
2024/01/18 14:03:14;;;;;;;27.80;20.30;;;;;;;;;;5072829;28;20645;-64
2024/01/18 14:05:42;;;;;;;28.10;19.65;;;;;;;;;;5072735;28;20193;-64
2024/01/18 14:08:09;;;;;;;30.42;20.00;;;;;;;;;;5072798;28;20300;-64
2024/01/18 14:10:36;;;;;;;26.77;19.25;;;;;;;;;;5072664;28;20249;-64
2024/01/18 14:13:04;;;;;;;31.00;17.45;;;;;;;;;;5072601;28;20280;-63
2024/01/18 14:15:31;;;;;;;25.63;16.90;;;;;;;;;;5072535;28;20783;-64
2024/01/18 14:17:58;;;;;;;27.83;18.83;;;;;;;;;;5072560;28;20262;-64